sensor_id;sensor_type;location;lat;lon;timestamp;P1;durP1;ratioP1;P2;durP2;ratioP2
45077;SDS011;60508;42.622;25.416;2023-06-22T00:00:29;16.02;;;7.32;;
45077;SDS011;60508;42.622;25.416;2023-06-22T00:02:55;8.27;;;7.38;;
45077;SDS011;60508;42.622;25.416;2023-06-22T00:05:22;9.65;;;7.70;;
45077;SDS011;60508;42.622;25.416;2023-06-22T00:07:48;11.63;;;9.07;;
45077;SDS011;60508;42.622;25.416;2023-06-22T00:10:22;16.02;;;8.63;;
45077;SDS011;60508;42.622;25.416;2023-06-22T00:12:49;9.88;;;8.25;;
45077;SDS011;60508;42.622;25.416;2023-06-22T00:15:15;12.30;;;8.60;;
45077;SDS011;60508;42.622;25.416;2023-06-22T00:17:42;9.68;;;8.43;;
45077;SDS011;60508;42.622;25.416;2023-06-22T00:20:17;14.20;;;9.02;;
45077;SDS011;60508;42.622;25.416;2023-06-22T00:25:14;10.95;;;9.10;;
45077;SDS011;60508;42.622;25.416;2023-06-22T00:27:47;11.45;;;7.82;;
45077;SDS011;60508;42.622;25.416;2023-06-22T00:30:17;8.95;;;8.05;;
45077;SDS011;60508;42.622;25.416;2023-06-22T00:32:45;13.30;;;9.43;;
45077;SDS011;60508;42.622;25.416;2023-06-22T00:35:21;16.60;;;9.02;;
45077;SDS011;60508;42.622;25.416;2023-06-22T00:37:48;9.00;;;7.15;;
45077;SDS011;60508;42.622;25.416;2023-06-22T00:40:14;9.60;;;7.75;;
45077;SDS011;60508;42.622;25.416;2023-06-22T00:42:42;8.50;;;6.95;;
45077;SDS011;60508;42.622;25.416;2023-06-22T00:45:09;8.02;;;7.10;;
45077;SDS011;60508;42.622;25.416;2023-06-22T00:47:35;10.63;;;6.50;;
45077;SDS011;60508;42.622;25.416;2023-06-22T00:50:05;11.35;;;7.30;;
45077;SDS011;60508;42.622;25.416;2023-06-22T00:52:40;17.33;;;8.57;;
45077;SDS011;60508;42.622;25.416;2023-06-22T00:55:10;8.45;;;7.65;;
45077;SDS011;60508;42.622;25.416;2023-06-22T00:57:37;14.95;;;9.13;;
45077;SDS011;60508;42.622;25.416;2023-06-22T01:00:04;10.70;;;9.60;;
45077;SDS011;60508;42.622;25.416;2023-06-22T01:02:35;16.58;;;9.60;;
45077;SDS011;60508;42.622;25.416;2023-06-22T01:05:16;9.73;;;8.45;;
45077;SDS011;60508;42.622;25.416;2023-06-22T01:13:07;12.57;;;9.10;;
45077;SDS011;60508;42.622;25.416;2023-06-22T01:15:43;10.65;;;9.43;;
45077;SDS011;60508;42.622;25.416;2023-06-22T01:18:15;10.57;;;8.38;;
45077;SDS011;60508;42.622;25.416;2023-06-22T01:26:28;11.00;;;7.63;;
45077;SDS011;60508;42.622;25.416;2023-06-22T01:29:04;8.77;;;7.88;;
45077;SDS011;60508;42.622;25.416;2023-06-22T01:31:33;17.17;;;9.20;;
45077;SDS011;60508;42.622;25.416;2023-06-22T01:34:03;12.68;;;8.95;;
45077;SDS011;60508;42.622;25.416;2023-06-22T01:36:32;12.65;;;8.15;;
45077;SDS011;60508;42.622;25.416;2023-06-22T01:39:00;10.60;;;9.00;;
45077;SDS011;60508;42.622;25.416;2023-06-22T01:43:57;8.77;;;7.90;;
45077;SDS011;60508;42.622;25.416;2023-06-22T01:46:26;9.88;;;8.25;;
45077;SDS011;60508;42.622;25.416;2023-06-22T01:49:00;14.85;;;8.13;;
45077;SDS011;60508;42.622;25.416;2023-06-22T01:51:28;8.43;;;7.63;;
45077;SDS011;60508;42.622;25.416;2023-06-22T01:53:59;8.85;;;7.90;;
45077;SDS011;60508;42.622;25.416;2023-06-22T01:56:27;9.18;;;6.85;;
45077;SDS011;60508;42.622;25.416;2023-06-22T01:59:08;8.93;;;8.02;;
45077;SDS011;60508;42.622;25.416;2023-06-22T02:01:43;9.15;;;7.30;;
45077;SDS011;60508;42.622;25.416;2023-06-22T02:04:20;8.50;;;7.60;;
45077;SDS011;60508;42.622;25.416;2023-06-22T02:06:54;9.07;;;8.18;;
45077;SDS011;60508;42.622;25.416;2023-06-22T02:09:24;13.35;;;8.45;;
45077;SDS011;60508;42.622;25.416;2023-06-22T02:12:03;8.43;;;7.53;;
45077;SDS011;60508;42.622;25.416;2023-06-22T02:14:32;9.45;;;8.45;;
45077;SDS011;60508;42.622;25.416;2023-06-22T02:17:00;8.90;;;8.00;;
45077;SDS011;60508;42.622;25.416;2023-06-22T02:19:27;12.65;;;8.60;;
45077;SDS011;60508;42.622;25.416;2023-06-22T02:22:02;13.35;;;8.48;;
45077;SDS011;60508;42.622;25.416;2023-06-22T02:24:29;10.80;;;9.35;;
45077;SDS011;60508;42.622;25.416;2023-06-22T02:26:58;11.50;;;10.23;;
45077;SDS011;60508;42.622;25.416;2023-06-22T02:29:32;10.35;;;9.32;;
45077;SDS011;60508;42.622;25.416;2023-06-22T02:31:59;12.20;;;8.93;;
45077;SDS011;60508;42.622;25.416;2023-06-22T02:34:26;12.15;;;9.60;;
45077;SDS011;60508;42.622;25.416;2023-06-22T02:36:59;10.75;;;9.05;;
45077;SDS011;60508;42.622;25.416;2023-06-22T02:39:27;12.77;;;8.93;;
45077;SDS011;60508;42.622;25.416;2023-06-22T02:41:54;19.40;;;9.40;;
45077;SDS011;60508;42.622;25.416;2023-06-22T02:44:28;11.57;;;9.40;;
45077;SDS011;60508;42.622;25.416;2023-06-22T02:46:55;11.88;;;8.45;;
45077;SDS011;60508;42.622;25.416;2023-06-22T02:49:21;10.68;;;8.70;;
45077;SDS011;60508;42.622;25.416;2023-06-22T02:51:57;11.13;;;9.85;;
45077;SDS011;60508;42.622;25.416;2023-06-22T02:54:25;16.08;;;9.43;;
45077;SDS011;60508;42.622;25.416;2023-06-22T02:56:53;11.18;;;9.85;;
45077;SDS011;60508;42.622;25.416;2023-06-22T02:59:21;13.52;;;9.10;;
45077;SDS011;60508;42.622;25.416;2023-06-22T03:01:52;9.65;;;8.55;;
45077;SDS011;60508;42.622;25.416;2023-06-22T03:04:31;13.82;;;8.93;;
45077;SDS011;60508;42.622;25.416;2023-06-22T03:06:58;10.40;;;9.23;;
45077;SDS011;60508;42.622;25.416;2023-06-22T03:09:28;8.80;;;7.53;;
45077;SDS011;60508;42.622;25.416;2023-06-22T03:12:06;17.23;;;9.23;;
45077;SDS011;60508;42.622;25.416;2023-06-22T03:14:41;9.18;;;8.25;;
45077;SDS011;60508;42.622;25.416;2023-06-22T03:17:07;9.57;;;7.82;;
45077;SDS011;60508;42.622;25.416;2023-06-22T03:19:34;9.52;;;7.57;;
45077;SDS011;60508;42.622;25.416;2023-06-22T03:22:01;11.75;;;7.68;;
45077;SDS011;60508;42.622;25.416;2023-06-22T03:24:36;16.42;;;7.90;;
45077;SDS011;60508;42.622;25.416;2023-06-22T03:27:05;9.77;;;7.10;;
45077;SDS011;60508;42.622;25.416;2023-06-22T03:29:33;8.32;;;7.50;;
45077;SDS011;60508;42.622;25.416;2023-06-22T03:32:08;12.85;;;8.35;;
45077;SDS011;60508;42.622;25.416;2023-06-22T03:34:35;14.45;;;7.82;;
45077;SDS011;60508;42.622;25.416;2023-06-22T03:37:04;10.57;;;8.25;;
45077;SDS011;60508;42.622;25.416;2023-06-22T03:39:31;9.95;;;8.55;;
45077;SDS011;60508;42.622;25.416;2023-06-22T03:41:58;13.30;;;8.45;;
45077;SDS011;60508;42.622;25.416;2023-06-22T03:44:33;12.60;;;8.73;;
45077;SDS011;60508;42.622;25.416;2023-06-22T03:46:59;9.65;;;8.70;;
45077;SDS011;60508;42.622;25.416;2023-06-22T03:49:28;15.90;;;10.37;;
45077;SDS011;60508;42.622;25.416;2023-06-22T03:52:02;10.18;;;9.23;;
45077;SDS011;60508;42.622;25.416;2023-06-22T03:54:29;10.20;;;9.20;;
45077;SDS011;60508;42.622;25.416;2023-06-22T03:56:56;10.07;;;9.07;;
45077;SDS011;60508;42.622;25.416;2023-06-22T03:59:32;14.23;;;8.82;;
45077;SDS011;60508;42.622;25.416;2023-06-22T04:01:59;14.07;;;9.52;;
45077;SDS011;60508;42.622;25.416;2023-06-22T04:04:26;10.98;;;9.00;;
45077;SDS011;60508;42.622;25.416;2023-06-22T04:06:52;15.43;;;9.30;;
45077;SDS011;60508;42.622;25.416;2023-06-22T04:09:19;10.70;;;8.77;;
45077;SDS011;60508;42.622;25.416;2023-06-22T04:11:54;11.02;;;8.98;;
45077;SDS011;60508;42.622;25.416;2023-06-22T04:14:21;14.38;;;10.63;;
45077;SDS011;60508;42.622;25.416;2023-06-22T04:16:48;11.75;;;10.25;;
45077;SDS011;60508;42.622;25.416;2023-06-22T04:19:23;13.63;;;10.20;;
45077;SDS011;60508;42.622;25.416;2023-06-22T04:21:49;13.52;;;10.77;;
45077;SDS011;60508;42.622;25.416;2023-06-22T04:24:16;12.52;;;8.65;;
45077;SDS011;60508;42.622;25.416;2023-06-22T04:26:42;11.77;;;8.95;;
45077;SDS011;60508;42.622;25.416;2023-06-22T04:29:20;12.77;;;9.50;;
45077;SDS011;60508;42.622;25.416;2023-06-22T04:31:56;11.50;;;8.50;;
45077;SDS011;60508;42.622;25.416;2023-06-22T04:34:24;9.63;;;8.60;;
45077;SDS011;60508;42.622;25.416;2023-06-22T04:36:52;15.77;;;8.90;;
45077;SDS011;60508;42.622;25.416;2023-06-22T04:39:18;21.17;;;9.55;;
45077;SDS011;60508;42.622;25.416;2023-06-22T04:41:45;12.63;;;9.98;;
45077;SDS011;60508;42.622;25.416;2023-06-22T04:44:12;14.05;;;11.75;;
45077;SDS011;60508;42.622;25.416;2023-06-22T04:46:53;11.73;;;9.70;;
45077;SDS011;60508;42.622;25.416;2023-06-22T04:49:26;14.55;;;10.93;;
45077;SDS011;60508;42.622;25.416;2023-06-22T04:51:59;12.40;;;9.98;;
45077;SDS011;60508;42.622;25.416;2023-06-22T04:54:26;12.23;;;10.40;;
45077;SDS011;60508;42.622;25.416;2023-06-22T04:57:03;13.50;;;10.65;;
45077;SDS011;60508;42.622;25.416;2023-06-22T04:59:36;18.90;;;12.15;;
45077;SDS011;60508;42.622;25.416;2023-06-22T05:02:11;13.88;;;11.05;;
45077;SDS011;60508;42.622;25.416;2023-06-22T05:04:38;12.43;;;9.20;;
45077;SDS011;60508;42.622;25.416;2023-06-22T05:07:04;12.07;;;10.52;;
45077;SDS011;60508;42.622;25.416;2023-06-22T05:09:31;17.60;;;10.18;;
45077;SDS011;60508;42.622;25.416;2023-06-22T05:11:59;14.60;;;9.20;;
45077;SDS011;60508;42.622;25.416;2023-06-22T05:14:31;12.98;;;9.65;;
45077;SDS011;60508;42.622;25.416;2023-06-22T05:16:58;11.52;;;9.38;;
45077;SDS011;60508;42.622;25.416;2023-06-22T05:19:33;13.27;;;9.75;;
45077;SDS011;60508;42.622;25.416;2023-06-22T05:22:00;11.60;;;8.93;;
45077;SDS011;60508;42.622;25.416;2023-06-22T05:24:26;9.13;;;8.15;;
45077;SDS011;60508;42.622;25.416;2023-06-22T05:26:54;18.15;;;9.00;;
45077;SDS011;60508;42.622;25.416;2023-06-22T05:29:21;20.92;;;8.80;;
45077;SDS011;60508;42.622;25.416;2023-06-22T05:31:49;12.05;;;8.85;;
45077;SDS011;60508;42.622;25.416;2023-06-22T05:34:15;11.32;;;8.68;;
45077;SDS011;60508;42.622;25.416;2023-06-22T05:36:42;18.92;;;9.73;;
45077;SDS011;60508;42.622;25.416;2023-06-22T05:39:13;12.05;;;8.68;;
45077;SDS011;60508;42.622;25.416;2023-06-22T05:41:41;18.67;;;9.45;;
45077;SDS011;60508;42.622;25.416;2023-06-22T05:44:09;12.40;;;8.27;;
45077;SDS011;60508;42.622;25.416;2023-06-22T05:46:43;10.07;;;9.07;;
45077;SDS011;60508;42.622;25.416;2023-06-22T05:49:14;17.23;;;8.77;;
45077;SDS011;60508;42.622;25.416;2023-06-22T05:51:42;10.85;;;8.85;;
45077;SDS011;60508;42.622;25.416;2023-06-22T05:54:08;9.70;;;8.80;;
45077;SDS011;60508;42.622;25.416;2023-06-22T05:56:35;13.15;;;8.00;;
45077;SDS011;60508;42.622;25.416;2023-06-22T05:59:11;12.50;;;7.75;;
45077;SDS011;60508;42.622;25.416;2023-06-22T06:01:38;15.20;;;8.60;;
45077;SDS011;60508;42.622;25.416;2023-06-22T06:04:06;11.55;;;8.38;;
45077;SDS011;60508;42.622;25.416;2023-06-22T06:06:43;16.45;;;9.00;;
45077;SDS011;60508;42.622;25.416;2023-06-22T06:09:09;12.65;;;7.82;;
45077;SDS011;60508;42.622;25.416;2023-06-22T06:11:37;16.60;;;10.88;;
45077;SDS011;60508;42.622;25.416;2023-06-22T06:14:04;15.23;;;8.25;;
45077;SDS011;60508;42.622;25.416;2023-06-22T06:16:31;10.88;;;9.40;;
45077;SDS011;60508;42.622;25.416;2023-06-22T06:19:06;15.13;;;10.00;;
45077;SDS011;60508;42.622;25.416;2023-06-22T06:21:33;16.95;;;9.20;;
45077;SDS011;60508;42.622;25.416;2023-06-22T06:24:00;18.30;;;10.48;;
45077;SDS011;60508;42.622;25.416;2023-06-22T06:26:26;13.57;;;10.63;;
45077;SDS011;60508;42.622;25.416;2023-06-22T06:28:59;15.13;;;11.25;;
45077;SDS011;60508;42.622;25.416;2023-06-22T06:31:26;19.83;;;10.25;;
45077;SDS011;60508;42.622;25.416;2023-06-22T06:33:54;17.67;;;10.73;;
45077;SDS011;60508;42.622;25.416;2023-06-22T06:36:21;13.43;;;9.63;;
45077;SDS011;60508;42.622;25.416;2023-06-22T06:38:47;11.82;;;9.63;;
45077;SDS011;60508;42.622;25.416;2023-06-22T06:41:15;13.57;;;10.23;;
45077;SDS011;60508;42.622;25.416;2023-06-22T06:43:42;12.75;;;8.75;;
45077;SDS011;60508;42.622;25.416;2023-06-22T06:46:11;17.90;;;9.57;;
45077;SDS011;60508;42.622;25.416;2023-06-22T06:48:38;10.95;;;9.85;;
45077;SDS011;60508;42.622;25.416;2023-06-22T06:51:05;11.77;;;9.40;;
45077;SDS011;60508;42.622;25.416;2023-06-22T06:53:41;10.90;;;9.68;;
45077;SDS011;60508;42.622;25.416;2023-06-22T06:56:07;17.65;;;9.77;;
45077;SDS011;60508;42.622;25.416;2023-06-22T06:58:36;11.23;;;9.68;;
45077;SDS011;60508;42.622;25.416;2023-06-22T07:01:03;12.75;;;10.45;;
45077;SDS011;60508;42.622;25.416;2023-06-22T07:03:37;28.35;;;12.57;;
45077;SDS011;60508;42.622;25.416;2023-06-22T07:06:04;18.55;;;10.15;;
45077;SDS011;60508;42.622;25.416;2023-06-22T07:08:30;18.67;;;10.85;;
45077;SDS011;60508;42.622;25.416;2023-06-22T07:10:57;17.67;;;9.82;;
45077;SDS011;60508;42.622;25.416;2023-06-22T07:13:24;19.77;;;11.15;;
45077;SDS011;60508;42.622;25.416;2023-06-22T07:15:50;13.57;;;9.48;;
45077;SDS011;60508;42.622;25.416;2023-06-22T07:18:25;9.20;;;7.30;;
45077;SDS011;60508;42.622;25.416;2023-06-22T07:20:52;9.85;;;7.18;;
45077;SDS011;60508;42.622;25.416;2023-06-22T07:23:19;7.82;;;6.78;;
45077;SDS011;60508;42.622;25.416;2023-06-22T07:25:45;12.60;;;7.45;;
45077;SDS011;60508;42.622;25.416;2023-06-22T07:28:12;11.88;;;7.05;;
45077;SDS011;60508;42.622;25.416;2023-06-22T07:30:39;8.25;;;7.38;;
45077;SDS011;60508;42.622;25.416;2023-06-22T07:33:06;9.60;;;7.25;;
45077;SDS011;60508;42.622;25.416;2023-06-22T07:35:34;10.90;;;7.82;;
45077;SDS011;60508;42.622;25.416;2023-06-22T07:38:09;18.60;;;9.30;;
45077;SDS011;60508;42.622;25.416;2023-06-22T07:40:36;11.80;;;7.15;;
45077;SDS011;60508;42.622;25.416;2023-06-22T07:43:07;10.98;;;7.80;;
45077;SDS011;60508;42.622;25.416;2023-06-22T07:45:34;13.60;;;7.28;;
45077;SDS011;60508;42.622;25.416;2023-06-22T07:48:01;12.50;;;7.78;;
45077;SDS011;60508;42.622;25.416;2023-06-22T07:50:35;17.67;;;7.53;;
45077;SDS011;60508;42.622;25.416;2023-06-22T07:53:01;25.13;;;11.30;;
45077;SDS011;60508;42.622;25.416;2023-06-22T07:55:29;12.00;;;8.38;;
45077;SDS011;60508;42.622;25.416;2023-06-22T07:57:55;12.98;;;8.63;;
45077;SDS011;60508;42.622;25.416;2023-06-22T08:00:22;11.25;;;9.32;;
45077;SDS011;60508;42.622;25.416;2023-06-22T08:02:49;16.65;;;8.95;;
45077;SDS011;60508;42.622;25.416;2023-06-22T08:05:24;12.05;;;8.45;;
45077;SDS011;60508;42.622;25.416;2023-06-22T08:07:51;11.30;;;7.75;;
45077;SDS011;60508;42.622;25.416;2023-06-22T08:10:18;9.77;;;7.45;;
45077;SDS011;60508;42.622;25.416;2023-06-22T08:12:45;12.85;;;7.55;;
45077;SDS011;60508;42.622;25.416;2023-06-22T08:15:11;11.60;;;8.90;;
45077;SDS011;60508;42.622;25.416;2023-06-22T08:17:38;16.70;;;8.00;;
45077;SDS011;60508;42.622;25.416;2023-06-22T08:20:05;12.85;;;8.35;;
45077;SDS011;60508;42.622;25.416;2023-06-22T08:22:36;14.38;;;9.93;;
45077;SDS011;60508;42.622;25.416;2023-06-22T08:25:11;12.30;;;6.78;;
45077;SDS011;60508;42.622;25.416;2023-06-22T08:27:39;13.10;;;7.85;;
45077;SDS011;60508;42.622;25.416;2023-06-22T08:30:06;12.80;;;7.53;;
45077;SDS011;60508;42.622;25.416;2023-06-22T08:32:33;15.25;;;8.52;;
45077;SDS011;60508;42.622;25.416;2023-06-22T08:35:00;12.45;;;8.48;;
45077;SDS011;60508;42.622;25.416;2023-06-22T08:37:33;18.73;;;7.85;;
45077;SDS011;60508;42.622;25.416;2023-06-22T08:40:02;14.43;;;7.70;;
45077;SDS011;60508;42.622;25.416;2023-06-22T08:42:35;8.38;;;7.57;;
45077;SDS011;60508;42.622;25.416;2023-06-22T08:45:06;16.25;;;9.73;;
45077;SDS011;60508;42.622;25.416;2023-06-22T08:47:33;10.05;;;6.88;;
45077;SDS011;60508;42.622;25.416;2023-06-22T08:50:06;14.77;;;7.22;;
45077;SDS011;60508;42.622;25.416;2023-06-22T08:52:34;12.95;;;7.53;;
45077;SDS011;60508;42.622;25.416;2023-06-22T08:55:01;13.80;;;7.38;;
45077;SDS011;60508;42.622;25.416;2023-06-22T08:57:29;7.68;;;6.82;;
45077;SDS011;60508;42.622;25.416;2023-06-22T08:59:56;11.45;;;6.72;;
45077;SDS011;60508;42.622;25.416;2023-06-22T09:02:27;7.72;;;6.55;;
45077;SDS011;60508;42.622;25.416;2023-06-22T09:05:04;12.52;;;7.10;;
45077;SDS011;60508;42.622;25.416;2023-06-22T09:07:31;8.75;;;6.47;;
45077;SDS011;60508;42.622;25.416;2023-06-22T09:09:57;7.78;;;7.03;;
45077;SDS011;60508;42.622;25.416;2023-06-22T09:12:32;7.25;;;6.50;;
45077;SDS011;60508;42.622;25.416;2023-06-22T09:15:00;11.80;;;6.65;;
45077;SDS011;60508;42.622;25.416;2023-06-22T09:17:27;8.15;;;5.35;;
45077;SDS011;60508;42.622;25.416;2023-06-22T09:20:02;9.30;;;6.75;;
45077;SDS011;60508;42.622;25.416;2023-06-22T09:22:32;6.68;;;6.10;;
45077;SDS011;60508;42.622;25.416;2023-06-22T09:24:58;6.80;;;6.10;;
45077;SDS011;60508;42.622;25.416;2023-06-22T09:27:26;7.07;;;6.38;;
45077;SDS011;60508;42.622;25.416;2023-06-22T09:30:01;7.03;;;6.40;;
45077;SDS011;60508;42.622;25.416;2023-06-22T09:32:29;8.90;;;6.95;;
45077;SDS011;60508;42.622;25.416;2023-06-22T09:34:56;8.25;;;6.72;;
45077;SDS011;60508;42.622;25.416;2023-06-22T09:37:22;18.52;;;7.75;;
45077;SDS011;60508;42.622;25.416;2023-06-22T09:39:57;6.50;;;5.80;;
45077;SDS011;60508;42.622;25.416;2023-06-22T09:42:24;7.88;;;6.32;;
45077;SDS011;60508;42.622;25.416;2023-06-22T09:44:50;7.50;;;5.72;;
45077;SDS011;60508;42.622;25.416;2023-06-22T09:47:17;6.93;;;5.80;;
45077;SDS011;60508;42.622;25.416;2023-06-22T09:49:43;6.53;;;5.40;;
45077;SDS011;60508;42.622;25.416;2023-06-22T09:52:10;6.38;;;5.88;;
45077;SDS011;60508;42.622;25.416;2023-06-22T09:54:37;7.55;;;6.72;;
45077;SDS011;60508;42.622;25.416;2023-06-22T09:57:04;6.80;;;5.82;;
45077;SDS011;60508;42.622;25.416;2023-06-22T09:59:40;8.77;;;6.75;;
45077;SDS011;60508;42.622;25.416;2023-06-22T10:02:08;7.38;;;6.75;;
45077;SDS011;60508;42.622;25.416;2023-06-22T10:04:35;6.47;;;5.25;;
45077;SDS011;60508;42.622;25.416;2023-06-22T10:07:09;6.97;;;5.60;;
45077;SDS011;60508;42.622;25.416;2023-06-22T10:09:35;6.88;;;5.82;;
45077;SDS011;60508;42.622;25.416;2023-06-22T10:12:02;7.43;;;5.95;;
45077;SDS011;60508;42.622;25.416;2023-06-22T10:14:29;8.60;;;5.88;;
45077;SDS011;60508;42.622;25.416;2023-06-22T10:16:55;9.18;;;5.50;;
45077;SDS011;60508;42.622;25.416;2023-06-22T10:19:30;12.93;;;6.53;;
45077;SDS011;60508;42.622;25.416;2023-06-22T10:21:57;6.88;;;6.18;;
45077;SDS011;60508;42.622;25.416;2023-06-22T10:24:23;7.65;;;5.63;;
45077;SDS011;60508;42.622;25.416;2023-06-22T10:26:58;6.45;;;5.65;;
45077;SDS011;60508;42.622;25.416;2023-06-22T10:29:25;9.40;;;8.13;;
45077;SDS011;60508;42.622;25.416;2023-06-22T10:31:52;9.55;;;5.88;;
45077;SDS011;60508;42.622;25.416;2023-06-22T10:34:26;9.27;;;8.25;;
45077;SDS011;60508;42.622;25.416;2023-06-22T10:36:52;7.72;;;5.72;;
45077;SDS011;60508;42.622;25.416;2023-06-22T10:39:19;6.07;;;5.40;;
45077;SDS011;60508;42.622;25.416;2023-06-22T10:41:53;7.70;;;6.50;;
45077;SDS011;60508;42.622;25.416;2023-06-22T10:44:20;6.22;;;5.63;;
45077;SDS011;60508;42.622;25.416;2023-06-22T10:46:46;23.63;;;5.78;;
45077;SDS011;60508;42.622;25.416;2023-06-22T10:49:13;5.97;;;5.38;;
45077;SDS011;60508;42.622;25.416;2023-06-22T10:51:40;12.40;;;7.57;;
45077;SDS011;60508;42.622;25.416;2023-06-22T10:54:07;7.63;;;6.35;;
45077;SDS011;60508;42.622;25.416;2023-06-22T10:56:34;6.90;;;6.22;;
45077;SDS011;60508;42.622;25.416;2023-06-22T10:59:08;6.43;;;5.80;;
45077;SDS011;60508;42.622;25.416;2023-06-22T11:01:34;7.47;;;5.32;;
45077;SDS011;60508;42.622;25.416;2023-06-22T11:04:01;8.32;;;6.22;;
45077;SDS011;60508;42.622;25.416;2023-06-22T11:06:35;5.70;;;5.20;;
45077;SDS011;60508;42.622;25.416;2023-06-22T11:09:02;10.68;;;6.28;;
45077;SDS011;60508;42.622;25.416;2023-06-22T11:11:29;6.43;;;5.82;;
45077;SDS011;60508;42.622;25.416;2023-06-22T11:14:05;6.00;;;5.50;;
45077;SDS011;60508;42.622;25.416;2023-06-22T11:16:32;8.95;;;5.95;;
45077;SDS011;60508;42.622;25.416;2023-06-22T11:18:58;6.78;;;5.65;;
45077;SDS011;60508;42.622;25.416;2023-06-22T11:21:24;6.22;;;5.70;;
45077;SDS011;60508;42.622;25.416;2023-06-22T11:23:59;6.03;;;5.53;;
45077;SDS011;60508;42.622;25.416;2023-06-22T11:26:26;7.60;;;5.68;;
45077;SDS011;60508;42.622;25.416;2023-06-22T11:28:53;7.10;;;5.00;;
45077;SDS011;60508;42.622;25.416;2023-06-22T11:31:26;10.75;;;5.93;;
45077;SDS011;60508;42.622;25.416;2023-06-22T11:33:52;5.47;;;4.97;;
45077;SDS011;60508;42.622;25.416;2023-06-22T11:36:19;8.35;;;5.93;;
45077;SDS011;60508;42.622;25.416;2023-06-22T11:38:46;6.55;;;5.15;;
45077;SDS011;60508;42.622;25.416;2023-06-22T11:41:12;6.20;;;5.63;;
45077;SDS011;60508;42.622;25.416;2023-06-22T11:43:42;6.53;;;5.00;;
45077;SDS011;60508;42.622;25.416;2023-06-22T11:46:08;12.70;;;5.22;;
45077;SDS011;60508;42.622;25.416;2023-06-22T11:48:40;5.90;;;5.40;;
45077;SDS011;60508;42.622;25.416;2023-06-22T11:51:07;6.82;;;6.15;;
45077;SDS011;60508;42.622;25.416;2023-06-22T11:53:34;9.00;;;6.68;;
45077;SDS011;60508;42.622;25.416;2023-06-22T11:56:01;5.95;;;5.30;;
45077;SDS011;60508;42.622;25.416;2023-06-22T11:58:27;6.07;;;5.57;;
45077;SDS011;60508;42.622;25.416;2023-06-22T12:00:55;8.65;;;5.35;;
45077;SDS011;60508;42.622;25.416;2023-06-22T12:03:21;5.07;;;4.68;;
45077;SDS011;60508;42.622;25.416;2023-06-22T12:05:54;6.70;;;5.25;;
45077;SDS011;60508;42.622;25.416;2023-06-22T12:08:21;5.07;;;4.68;;
45077;SDS011;60508;42.622;25.416;2023-06-22T12:10:49;5.93;;;4.88;;
45077;SDS011;60508;42.622;25.416;2023-06-22T12:13:19;5.57;;;4.57;;
45077;SDS011;60508;42.622;25.416;2023-06-22T12:15:47;5.15;;;4.18;;
45077;SDS011;60508;42.622;25.416;2023-06-22T12:18:14;4.47;;;4.18;;
45077;SDS011;60508;42.622;25.416;2023-06-22T12:20:41;8.95;;;4.85;;
45077;SDS011;60508;42.622;25.416;2023-06-22T12:23:08;8.07;;;4.97;;
45077;SDS011;60508;42.622;25.416;2023-06-22T12:25:34;5.28;;;4.78;;
45077;SDS011;60508;42.622;25.416;2023-06-22T12:28:01;6.82;;;5.40;;
45077;SDS011;60508;42.622;25.416;2023-06-22T12:30:27;4.97;;;4.47;;
45077;SDS011;60508;42.622;25.416;2023-06-22T12:33:01;7.95;;;4.43;;
45077;SDS011;60508;42.622;25.416;2023-06-22T12:35:34;5.78;;;5.20;;
45077;SDS011;60508;42.622;25.416;2023-06-22T12:38:01;4.75;;;4.30;;
45077;SDS011;60508;42.622;25.416;2023-06-22T12:40:29;4.80;;;4.40;;
45077;SDS011;60508;42.622;25.416;2023-06-22T12:42:55;5.10;;;4.60;;
45077;SDS011;60508;42.622;25.416;2023-06-22T12:45:30;6.95;;;5.20;;
45077;SDS011;60508;42.622;25.416;2023-06-22T12:47:59;5.68;;;4.88;;
45077;SDS011;60508;42.622;25.416;2023-06-22T12:50:26;7.43;;;4.80;;
45077;SDS011;60508;42.622;25.416;2023-06-22T12:52:53;6.40;;;5.30;;
45077;SDS011;60508;42.622;25.416;2023-06-22T12:57:48;6.00;;;5.50;;
45077;SDS011;60508;42.622;25.416;2023-06-22T13:00:23;14.70;;;5.40;;
45077;SDS011;60508;42.622;25.416;2023-06-22T13:02:50;5.57;;;5.13;;
45077;SDS011;60508;42.622;25.416;2023-06-22T13:05:16;9.63;;;5.45;;
45077;SDS011;60508;42.622;25.416;2023-06-22T13:07:43;6.95;;;5.55;;
45077;SDS011;60508;42.622;25.416;2023-06-22T13:10:09;5.70;;;4.78;;
45077;SDS011;60508;42.622;25.416;2023-06-22T13:12:36;6.97;;;5.60;;
45077;SDS011;60508;42.622;25.416;2023-06-22T13:15:11;7.18;;;5.13;;
45077;SDS011;60508;42.622;25.416;2023-06-22T13:17:37;5.93;;;5.00;;
45077;SDS011;60508;42.622;25.416;2023-06-22T13:20:04;8.57;;;4.85;;
45077;SDS011;60508;42.622;25.416;2023-06-22T13:22:40;9.07;;;5.93;;
45077;SDS011;60508;42.622;25.416;2023-06-22T13:25:09;10.93;;;5.15;;
45077;SDS011;60508;42.622;25.416;2023-06-22T13:27:42;5.82;;;5.05;;
45077;SDS011;60508;42.622;25.416;2023-06-22T13:30:15;7.10;;;5.03;;
45077;SDS011;60508;42.622;25.416;2023-06-22T13:32:42;4.50;;;4.07;;
45077;SDS011;60508;42.622;25.416;2023-06-22T13:35:09;5.75;;;3.55;;
45077;SDS011;60508;42.622;25.416;2023-06-22T13:37:37;3.88;;;3.60;;
45077;SDS011;60508;42.622;25.416;2023-06-22T13:40:06;4.93;;;4.35;;
45077;SDS011;60508;42.622;25.416;2023-06-22T13:42:34;5.78;;;4.47;;
45077;SDS011;60508;42.622;25.416;2023-06-22T13:45:01;5.25;;;4.78;;
45077;SDS011;60508;42.622;25.416;2023-06-22T13:47:30;4.97;;;4.43;;
45077;SDS011;60508;42.622;25.416;2023-06-22T13:49:56;10.13;;;4.80;;
45077;SDS011;60508;42.622;25.416;2023-06-22T13:52:24;5.13;;;4.20;;
45077;SDS011;60508;42.622;25.416;2023-06-22T13:54:50;5.00;;;4.50;;
45077;SDS011;60508;42.622;25.416;2023-06-22T13:57:17;4.85;;;4.45;;
45077;SDS011;60508;42.622;25.416;2023-06-22T13:59:51;4.85;;;4.45;;
45077;SDS011;60508;42.622;25.416;2023-06-22T14:02:18;6.13;;;4.60;;
45077;SDS011;60508;42.622;25.416;2023-06-22T14:04:45;6.88;;;5.13;;
45077;SDS011;60508;42.622;25.416;2023-06-22T14:07:12;5.80;;;4.45;;
45077;SDS011;60508;42.622;25.416;2023-06-22T14:09:47;5.30;;;4.80;;
45077;SDS011;60508;42.622;25.416;2023-06-22T14:12:13;4.70;;;4.30;;
45077;SDS011;60508;42.622;25.416;2023-06-22T14:14:40;4.70;;;4.30;;
45077;SDS011;60508;42.622;25.416;2023-06-22T14:17:06;8.98;;;4.82;;
45077;SDS011;60508;42.622;25.416;2023-06-22T14:19:39;5.05;;;4.53;;
45077;SDS011;60508;42.622;25.416;2023-06-22T14:22:05;6.15;;;5.05;;
45077;SDS011;60508;42.622;25.416;2023-06-22T14:24:32;4.93;;;4.53;;
45077;SDS011;60508;42.622;25.416;2023-06-22T14:26:58;7.68;;;4.53;;
45077;SDS011;60508;42.622;25.416;2023-06-22T14:29:28;5.53;;;4.30;;
45077;SDS011;60508;42.622;25.416;2023-06-22T14:31:55;5.25;;;4.50;;
45077;SDS011;60508;42.622;25.416;2023-06-22T14:34:29;7.30;;;5.10;;
45077;SDS011;60508;42.622;25.416;2023-06-22T14:36:55;6.03;;;5.07;;
45077;SDS011;60508;42.622;25.416;2023-06-22T14:39:22;6.32;;;4.82;;
45077;SDS011;60508;42.622;25.416;2023-06-22T14:41:49;5.20;;;4.80;;
45077;SDS011;60508;42.622;25.416;2023-06-22T14:44:15;4.82;;;4.43;;
45077;SDS011;60508;42.622;25.416;2023-06-22T14:46:42;5.93;;;5.30;;
45077;SDS011;60508;42.622;25.416;2023-06-22T14:49:16;7.78;;;4.78;;
45077;SDS011;60508;42.622;25.416;2023-06-22T14:51:42;5.78;;;4.47;;
45077;SDS011;60508;42.622;25.416;2023-06-22T14:54:09;9.57;;;5.13;;